Time;durP1;ratioP1;P1;durP2;ratioP2;P2;SDS_P1;SDS_P2;PMS_P1;PMS_P2;Temp;Humidity;BMP_temperature;BMP_pressure;BME280_temperature;BME280_humidity;BME280_pressure;Samples;Min_cycle;Max_cycle;Signal;HPM_P1;HPM_P2
2022/10/25 00:00:03;;;;;;;19.33;14.05;;;12.90;99.90;;;;;;4808279;29;89484;-32
2022/10/25 00:02:33;;;;;;;14.98;13.43;;;13.00;99.90;;;;;;4809410;29;89957;-29
2022/10/25 00:04:59;;;;;;;20.52;13.52;;;13.00;99.90;;;;;;4808682;29;90197;-30
2022/10/25 00:07:24;;;;;;;18.52;13.68;;;13.00;99.90;;;;;;4808217;29;89027;-27
2022/10/25 00:09:50;;;;;;;23.00;15.45;;;13.00;99.90;;;;;;4808265;29;90525;-32
2022/10/25 00:12:16;;;;;;;21.75;15.40;;;13.00;99.90;;;;;;4808393;29;89291;-30
2022/10/25 00:14:41;;;;;;;20.00;14.85;;;13.00;99.90;;;;;;4808062;29;90715;-32
2022/10/25 00:17:07;;;;;;;22.15;15.40;;;13.00;99.90;;;;;;4808879;29;89962;-30
2022/10/25 00:19:32;;;;;;;18.52;15.15;;;12.90;99.90;;;;;;4808480;29;89929;-28
2022/10/25 00:21:58;;;;;;;28.65;16.45;;;12.80;99.90;;;;;;4808339;29;87935;-28
2022/10/25 00:24:24;;;;;;;20.55;16.55;;;12.80;99.90;;;;;;4808091;29;90292;-29
2022/10/25 00:26:49;;;;;;;21.98;16.17;;;12.80;99.90;;;;;;4807772;29;89915;-31
2022/10/25 00:29:16;;;;;;;22.50;16.65;;;12.70;99.90;;;;;;4808224;29;89588;-32
2022/10/25 00:31:41;;;;;;;22.75;15.27;;;12.80;99.90;;;;;;4807607;29;88268;-29
2022/10/25 00:34:07;;;;;;;29.52;18.30;;;12.70;99.90;;;;;;4807487;29;90078;-29
2022/10/25 00:36:32;;;;;;;29.48;15.50;;;12.70;99.90;;;;;;4806415;29;89677;-30
2022/10/25 00:38:58;;;;;;;24.70;15.82;;;12.80;99.90;;;;;;4807331;29;89456;-30
2022/10/25 00:41:27;;;;;;;24.55;16.00;;;12.80;99.90;;;;;;4808604;29;88061;-29
2022/10/25 00:43:55;;;;;;;26.42;17.58;;;12.80;99.90;;;;;;4807733;29;90390;-29
2022/10/25 00:46:25;;;;;;;23.20;17.02;;;12.80;99.90;;;;;;4807408;29;89755;-28
2022/10/25 00:49:00;;;;;;;20.85;14.55;;;12.90;99.90;;;;;;4807278;29;89054;-31
2022/10/25 00:51:36;;;;;;;18.75;15.48;;;12.90;99.90;;;;;;4808393;29;89597;-32
2022/10/25 00:54:02;;;;;;;24.58;14.70;;;12.90;99.90;;;;;;4807676;29;89682;-31
2022/10/25 00:56:32;;;;;;;20.35;15.85;;;12.90;99.90;;;;;;4807355;29;90644;-31
2022/10/25 00:59:00;;;;;;;21.90;14.43;;;12.90;99.90;;;;;;4807399;29;89448;-31
2022/10/25 01:01:26;;;;;;;19.02;15.05;;;12.90;99.90;;;;;;4807284;29;89510;-29
2022/10/25 01:03:55;;;;;;;20.88;16.33;;;13.00;99.90;;;;;;4807752;29;90226;-28
2022/10/25 01:06:23;;;;;;;;;;;13.00;99.90;;;;;;4807916;29;89805;-29
2022/10/25 01:08:50;;;;;;;20.40;15.23;;;13.00;99.90;;;;;;4808678;29;90999;-29
2022/10/25 01:11:16;;;;;;;16.23;13.18;;;12.90;99.90;;;;;;4807744;29;90090;-29
2022/10/25 01:13:42;;;;;;;17.73;13.23;;;12.90;99.90;;;;;;4807503;29;90257;-31
2022/10/25 01:16:25;;;;;;;19.15;14.30;;;13.00;99.90;;;;;;4807326;29;89774;-29
2022/10/25 01:19:36;;;;;;;16.67;12.45;;;12.90;99.90;;;;;;4808033;29;89675;-27
2022/10/25 01:22:22;;;;;;;17.88;14.60;;;12.90;99.90;;;;;;4769841;29;88670;-30
2022/10/25 01:24:57;;;;;;;21.85;14.70;;;12.90;99.90;;;;;;4806670;29;90622;-30
2022/10/25 01:27:50;;;;;;;18.35;12.98;;;12.90;99.90;;;;;;4807340;29;90218;-28
2022/10/25 01:30:54;;;;;;;16.80;13.50;;;12.90;99.90;;;;;;4790582;29;89709;-30
2022/10/25 01:33:26;;;;;;;21.23;14.02;;;12.90;99.90;;;;;;4705241;29;88832;-27
2022/10/25 01:36:33;;;;;;;24.92;13.02;;;12.90;99.90;;;;;;4776004;29;90395;-28
2022/10/25 01:39:07;;;;;;;18.95;13.05;;;12.90;99.90;;;;;;4780964;29;89300;-32
2022/10/25 01:41:52;;;;;;;16.77;12.90;;;12.90;99.90;;;;;;4789044;29;89627;-28
2022/10/25 01:44:38;;;;;;;16.73;13.70;;;12.90;99.90;;;;;;4786105;29;88133;-31
2022/10/25 01:47:19;;;;;;;13.70;11.93;;;12.90;99.90;;;;;;4788912;29;90859;-32
2022/10/25 01:50:12;;;;;;;14.25;12.57;;;12.90;99.90;;;;;;4786719;29;89986;-31
2022/10/25 01:52:37;;;;;;;20.10;12.80;;;12.80;99.90;;;;;;4788862;29;90598;-28
2022/10/25 01:55:09;;;;;;;20.55;14.43;;;12.80;99.90;;;;;;4788112;29;88777;-32
2022/10/25 01:57:57;;;;;;;15.63;10.88;;;12.80;99.90;;;;;;4788200;29;90464;-31
2022/10/25 02:00:24;;;;;;;18.23;11.43;;;12.80;99.90;;;;;;4777637;29;90103;-31
2022/10/25 02:03:31;;;;;;;16.80;11.18;;;12.80;99.90;;;;;;4788290;29;89185;-32
2022/10/25 02:06:15;;;;;;;13.37;11.87;;;12.70;99.90;;;;;;4787839;29;88401;-29
2022/10/25 02:09:01;;;;;;;16.48;11.30;;;12.70;99.90;;;;;;4776344;29;89844;-28
2022/10/25 02:11:31;;;;;;;18.65;12.05;;;12.70;99.90;;;;;;4788148;29;90886;-29
2022/10/25 02:14:08;;;;;;;11.18;10.02;;;12.70;99.90;;;;;;4787469;29;89608;-29
2022/10/25 02:16:34;;;;;;;16.20;12.50;;;12.70;99.90;;;;;;4787202;29;90582;-31
2022/10/25 02:19:02;;;;;;;17.20;10.90;;;12.70;99.90;;;;;;4788877;29;90632;-30
2022/10/25 02:21:31;;;;;;;16.63;12.38;;;12.60;99.90;;;;;;4788474;29;91015;-29
2022/10/25 02:24:02;;;;;;;15.27;10.25;;;12.60;99.90;;;;;;4788231;29;89514;-30
2022/10/25 02:26:28;;;;;;;12.40;10.98;;;12.60;99.90;;;;;;4789282;29;88605;-29
2022/10/25 02:28:53;;;;;;;19.05;11.40;;;12.60;99.90;;;;;;4787584;29;90028;-29
2022/10/25 02:31:22;;;;;;;14.80;10.77;;;12.60;99.90;;;;;;4788863;29;89753;-30
2022/10/25 02:33:48;;;;;;;;;;;12.70;99.90;;;;;;4795203;29;89456;-30
2022/10/25 02:36:18;;;;;;;17.35;11.45;;;12.70;99.90;;;;;;4807754;29;89125;-31
2022/10/25 02:38:44;;;;;;;19.55;9.98;;;12.70;99.90;;;;;;4805938;29;90794;-29
2022/10/25 02:41:10;;;;;;;12.23;10.63;;;12.70;99.90;;;;;;4806038;29;90610;-30
2022/10/25 02:43:36;;;;;;;14.95;11.40;;;12.60;99.90;;;;;;4806938;29;90969;-29
2022/10/25 02:46:10;;;;;;;13.48;10.23;;;12.70;99.90;;;;;;4805749;29;89756;-30
2022/10/25 02:48:36;;;;;;;16.02;10.10;;;12.70;99.90;;;;;;4806484;29;91112;-30
2022/10/25 02:51:03;;;;;;;14.60;12.02;;;12.70;99.90;;;;;;4805415;29;89389;-30
2022/10/25 02:53:30;;;;;;;13.38;10.40;;;12.70;99.90;;;;;;4805961;29;89348;-29
2022/10/25 02:56:06;;;;;;;12.65;10.23;;;12.70;99.90;;;;;;4806673;29;88667;-29
2022/10/25 02:58:34;;;;;;;14.43;11.80;;;12.70;99.90;;;;;;4806725;29;90251;-28
2022/10/25 03:00:59;;;;;;;18.87;12.57;;;12.80;99.90;;;;;;4807037;29;90315;-29
2022/10/25 03:03:27;;;;;;;14.40;11.77;;;12.80;99.90;;;;;;4809350;29;90045;-30
2022/10/25 03:05:53;;;;;;;14.63;12.27;;;12.80;99.90;;;;;;4808499;29;88135;-28
2022/10/25 03:08:19;;;;;;;22.42;15.45;;;12.80;99.90;;;;;;4809410;29;90448;-28
2022/10/25 03:10:45;;;;;;;16.30;11.60;;;12.80;99.90;;;;;;4809126;29;89956;-28
2022/10/25 03:13:10;;;;;;;14.70;11.35;;;12.80;99.90;;;;;;4808897;29;90578;-28
2022/10/25 03:15:36;;;;;;;17.05;13.68;;;12.90;99.90;;;;;;4809188;29;89106;-31
2022/10/25 03:18:01;;;;;;;18.13;13.65;;;12.90;99.90;;;;;;4808856;29;90348;-32
2022/10/25 03:20:27;;;;;;;20.33;13.07;;;12.90;99.90;;;;;;4792441;29;87988;-32
2022/10/25 03:22:53;;;;;;;20.30;14.15;;;13.00;99.90;;;;;;4809364;29;89816;-27
2022/10/25 03:25:18;;;;;;;20.33;13.35;;;13.00;99.90;;;;;;4792386;29;89245;-29
2022/10/25 03:27:44;;;;;;;19.98;13.43;;;13.00;99.90;;;;;;4809110;29;90378;-30
2022/10/25 03:30:11;;;;;;;16.75;13.38;;;13.10;99.90;;;;;;4808043;29;90960;-30
2022/10/25 03:32:37;;;;;;;17.35;12.00;;;13.10;99.90;;;;;;4809194;29;90445;-26
2022/10/25 03:35:03;;;;;;;17.00;13.23;;;13.10;99.90;;;;;;4808143;29;88199;-30
2022/10/25 03:37:28;;;;;;;18.00;12.93;;;13.10;99.90;;;;;;4808717;29;90442;-30
2022/10/25 03:39:54;;;;;;;20.77;12.48;;;13.20;99.90;;;;;;4809153;29;89876;-29
2022/10/25 03:42:20;;;;;;;20.13;13.43;;;13.20;99.90;;;;;;4809098;29;88683;-28
2022/10/25 03:44:45;;;;;;;20.73;12.75;;;13.20;99.90;;;;;;4808852;29;89763;-31
2022/10/25 03:47:11;;;;;;;18.15;13.55;;;13.20;99.90;;;;;;4809224;29;90629;-29
2022/10/25 03:49:37;;;;;;;21.83;13.65;;;13.20;99.90;;;;;;4808582;29;89467;-31
2022/10/25 03:52:04;;;;;;;16.35;12.23;;;13.30;99.90;;;;;;4808169;29;89816;-27
2022/10/25 03:54:30;;;;;;;15.13;13.32;;;13.30;99.90;;;;;;4808468;29;89129;-28
2022/10/25 03:56:56;;;;;;;21.52;13.20;;;13.30;99.90;;;;;;4807979;29;90186;-29
2022/10/25 03:59:21;;;;;;;15.77;11.98;;;13.30;99.90;;;;;;4808716;29;89706;-31
2022/10/25 04:01:47;;;;;;;19.33;12.20;;;13.30;99.90;;;;;;4807872;29;90389;-30
2022/10/25 04:04:12;;;;;;;21.23;13.77;;;13.30;99.90;;;;;;4808829;29;87955;-30
2022/10/25 04:06:38;;;;;;;15.88;12.48;;;13.30;99.90;;;;;;4808493;29;90899;-31
2022/10/25 04:09:04;;;;;;;22.75;12.70;;;13.30;99.90;;;;;;4808204;29;90064;-31
2022/10/25 04:11:29;;;;;;;14.90;11.25;;;13.20;99.90;;;;;;4808291;29;89523;-30
2022/10/25 04:13:55;;;;;;;18.90;13.20;;;13.20;99.90;;;;;;4807979;29;87715;-28
2022/10/25 04:16:22;;;;;;;15.80;12.23;;;13.20;99.90;;;;;;4808331;29;90236;-32
2022/10/25 04:18:49;;;;;;;17.98;11.80;;;13.10;99.90;;;;;;4807356;29;93865;-31
2022/10/25 04:21:14;;;;;;;16.15;11.57;;;13.10;99.90;;;;;;4807738;29;90625;-30
2022/10/25 04:23:40;;;;;;;14.68;11.15;;;13.10;99.90;;;;;;4808307;29;88848;-30
2022/10/25 04:26:06;;;;;;;18.02;12.95;;;13.00;99.90;;;;;;4807693;29;90433;-30
2022/10/25 04:28:31;;;;;;;16.52;12.15;;;13.00;99.90;;;;;;4808420;29;89773;-29
2022/10/25 04:30:57;;;;;;;15.32;12.00;;;13.00;99.90;;;;;;4808187;29;90898;-28
2022/10/25 04:33:22;;;;;;;17.35;11.75;;;13.00;99.90;;;;;;4839168;23;88563;-28
2022/10/25 04:35:55;;;;;;;20.88;12.95;;;13.00;99.90;;;;;;4807382;29;91389;-27
2022/10/25 04:38:22;;;;;;;20.58;12.25;;;13.00;99.90;;;;;;4808567;29;89810;-32
2022/10/25 04:40:54;;;;;;;22.10;12.38;;;13.00;99.90;;;;;;4808022;29;89638;-28
2022/10/25 04:43:20;;;;;;;18.52;12.73;;;13.00;99.90;;;;;;4807545;29;90499;-32
2022/10/25 04:45:46;;;;;;;18.80;13.10;;;12.90;99.90;;;;;;4807061;29;90244;-30
2022/10/25 04:48:11;;;;;;;21.52;14.73;;;13.00;99.90;;;;;;4807425;29;88604;-30
2022/10/25 04:50:37;;;;;;;20.10;12.70;;;12.90;99.90;;;;;;4791579;29;89954;-28
2022/10/25 04:53:04;;;;;;;16.88;12.35;;;13.00;99.90;;;;;;4807420;29;88854;-30
2022/10/25 04:55:30;;;;;;;20.63;13.15;;;13.00;99.90;;;;;;4807505;29;90148;-30
2022/10/25 04:57:56;;;;;;;20.65;13.35;;;12.90;99.90;;;;;;4807535;29;89645;-28
2022/10/25 05:00:22;;;;;;;13.57;11.98;;;13.00;99.90;;;;;;4807856;29;89535;-29
2022/10/25 05:02:51;;;;;;;16.10;12.43;;;12.90;99.90;;;;;;4813952;29;89149;-30
2022/10/25 05:05:16;;;;;;;25.42;14.02;;;12.90;99.90;;;;;;4807877;29;89869;-30
2022/10/25 05:07:42;;;;;;;16.17;13.13;;;12.90;99.90;;;;;;4806075;29;91605;-29
2022/10/25 05:10:08;;;;;;;15.95;12.15;;;12.90;99.90;;;;;;4805161;29;90192;-30
2022/10/25 05:12:34;;;;;;;22.02;14.13;;;13.00;99.90;;;;;;4807468;29;88668;-29
2022/10/25 05:14:59;;;;;;;24.10;13.98;;;13.00;99.90;;;;;;4807241;29;90395;-32
2022/10/25 05:17:25;;;;;;;19.27;12.88;;;13.00;99.90;;;;;;4806380;29;89816;-28
2022/10/25 05:19:50;;;;;;;22.83;14.20;;;13.00;99.90;;;;;;4806690;29;89671;-28
2022/10/25 05:22:16;;;;;;;31.77;14.77;;;13.00;99.90;;;;;;4804952;29;90041;-28
2022/10/25 05:24:41;;;;;;;20.52;14.07;;;13.00;99.90;;;;;;4806053;29;90060;-28
2022/10/25 05:27:07;;;;;;;25.30;13.68;;;13.00;99.90;;;;;;4807280;29;89714;-28
2022/10/25 05:29:33;;;;;;;14.50;11.77;;;13.00;99.90;;;;;;4807759;29;89599;-29
2022/10/25 05:31:58;;;;;;;15.43;12.25;;;13.00;99.90;;;;;;4804784;29;88609;-28
2022/10/25 05:34:24;;;;;;;17.92;13.73;;;13.00;99.90;;;;;;4806850;29;90465;-27
2022/10/25 05:36:50;;;;;;;19.50;13.68;;;13.00;99.90;;;;;;4806009;29;90238;-28
2022/10/25 05:39:16;;;;;;;20.48;12.90;;;12.90;99.90;;;;;;4806902;29;89777;-31
2022/10/25 05:41:41;;;;;;;17.17;13.10;;;12.90;99.90;;;;;;4796076;29;88114;-30
2022/10/25 05:44:07;;;;;;;20.08;13.18;;;12.90;99.90;;;;;;4807377;29;88338;-34
2022/10/25 05:46:33;;;;;;;18.50;14.32;;;12.90;99.90;;;;;;4806789;29;89261;-29
2022/10/25 05:48:59;;;;;;;26.10;12.73;;;12.80;99.90;;;;;;4790136;29;89796;-29
2022/10/25 05:51:27;;;;;;;31.17;13.98;;;12.80;99.90;;;;;;4807060;29;90006;-29
2022/10/25 05:53:54;;;;;;;;;;;12.80;99.90;;;;;;4807891;29;91242;-28
2022/10/25 05:56:21;;;;;;;14.00;11.43;;;12.70;99.90;;;;;;4808162;29;90917;-32
2022/10/25 05:58:46;;;;;;;23.23;11.50;;;12.70;99.90;;;;;;4806214;29;91072;-28
2022/10/25 06:01:15;;;;;;;23.30;14.57;;;12.70;99.90;;;;;;4806941;29;88812;-28
2022/10/25 06:03:41;;;;;;;21.83;12.52;;;12.80;99.90;;;;;;4806615;29;90064;-28
2022/10/25 06:06:09;;;;;;;24.60;13.30;;;12.80;99.90;;;;;;4806211;29;89771;-31
2022/10/25 06:08:34;;;;;;;20.15;11.57;;;12.70;99.90;;;;;;4806957;29;89673;-32
2022/10/25 06:11:20;;;;;;;15.85;11.18;;;12.70;99.90;;;;;;4806772;29;90023;-30
2022/10/25 06:13:46;;;;;;;16.73;11.48;;;12.70;99.90;;;;;;4806039;29;89902;-31
2022/10/25 06:16:14;;;;;;;21.85;12.63;;;12.70;99.90;;;;;;4806464;29;89717;-29
2022/10/25 06:18:40;;;;;;;31.20;11.40;;;12.70;99.90;;;;;;4806390;29;89567;-31
2022/10/25 06:21:09;;;;;;;16.40;10.02;;;12.70;99.90;;;;;;4805969;29;89299;-28
2022/10/25 06:23:35;;;;;;;15.50;10.50;;;12.70;99.90;;;;;;4805682;29;90741;-30
2022/10/25 06:26:06;;;;;;;14.35;9.55;;;12.60;99.90;;;;;;4805011;29;88791;-28
2022/10/25 06:28:33;;;;;;;18.38;10.32;;;12.60;99.90;;;;;;4807131;29;89821;-32
2022/10/25 06:31:03;;;;;;;17.42;10.32;;;12.60;99.90;;;;;;4789423;29;89095;-30
2022/10/25 06:33:30;;;;;;;18.27;9.60;;;12.60;99.90;;;;;;4806488;29;90700;-28
2022/10/25 06:35:57;;;;;;;14.57;9.43;;;12.70;99.90;;;;;;4806047;29;89510;-28
2022/10/25 06:38:22;;;;;;;15.40;10.75;;;12.70;99.90;;;;;;4806928;29;89988;-30
2022/10/25 06:40:48;;;;;;;12.90;9.23;;;12.80;99.90;;;;;;4806585;29;87690;-29
2022/10/25 06:43:14;;;;;;;17.20;10.32;;;12.80;99.90;;;;;;4806907;29;90145;-32
2022/10/25 06:45:40;;;;;;;18.77;9.93;;;12.80;99.90;;;;;;4805983;29;90920;-34
2022/10/25 06:48:06;;;;;;;15.52;9.93;;;12.90;99.90;;;;;;4806598;29;90041;-30
2022/10/25 06:50:32;;;;;;;22.27;10.80;;;12.90;99.90;;;;;;4806015;29;88410;-29
2022/10/25 06:52:57;;;;;;;14.25;8.77;;;12.90;99.90;;;;;;4803654;29;89989;-28
2022/10/25 06:55:23;;;;;;;13.40;9.73;;;12.90;99.90;;;;;;4797700;29;89361;-29
2022/10/25 06:57:49;;;;;;;15.55;8.55;;;13.00;99.90;;;;;;4799484;29;89848;-32
2022/10/25 07:00:14;;;;;;;20.65;10.40;;;13.00;99.90;;;;;;4804365;29;89312;-30
2022/10/25 07:02:40;;;;;;;25.48;10.60;;;13.00;99.90;;;;;;4801404;29;90406;-30
2022/10/25 07:05:06;;;;;;;11.70;9.90;;;13.00;99.90;;;;;;4802398;29;90066;-30
2022/10/25 07:07:31;;;;;;;12.50;9.13;;;13.00;99.90;;;;;;4804225;29;89854;-28
2022/10/25 07:09:57;;;;;;;20.08;10.50;;;13.00;99.90;;;;;;4802581;29;89743;-30
2022/10/25 07:12:22;;;;;;;18.33;11.60;;;13.00;99.90;;;;;;4803357;29;90757;-29
2022/10/25 07:14:48;;;;;;;12.43;8.65;;;13.00;99.90;;;;;;4802595;29;90567;-31
2022/10/25 07:17:14;;;;;;;16.70;9.75;;;13.00;99.90;;;;;;4802434;29;89204;-32
2022/10/25 07:19:39;;;;;;;14.45;8.15;;;13.00;99.90;;;;;;4804298;29;88055;-33
2022/10/25 07:22:05;;;;;;;20.33;10.63;;;13.00;99.90;;;;;;4803073;29;89968;-29
2022/10/25 07:24:30;;;;;;;23.02;10.25;;;13.00;99.90;;;;;;4801900;29;90663;-28
2022/10/25 07:26:56;;;;;;;16.05;9.77;;;13.10;99.90;;;;;;4803943;29;89036;-30
2022/10/25 07:29:21;;;;;;;12.57;7.78;;;13.10;99.90;;;;;;4804702;29;88563;-32
2022/10/25 07:31:47;;;;;;;31.08;10.75;;;13.10;99.90;;;;;;4803818;29;89284;-31
2022/10/25 07:34:14;;;;;;;13.38;8.65;;;13.10;99.90;;;;;;4802909;29;92108;-30
2022/10/25 07:36:40;;;;;;;10.27;9.20;;;13.20;99.90;;;;;;4803831;29;90911;-34
2022/10/25 07:39:06;;;;;;;12.43;8.63;;;13.30;99.90;;;;;;4805077;29;89410;-31
2022/10/25 07:41:32;;;;;;;22.77;9.02;;;13.30;99.90;;;;;;4803252;29;89976;-30
2022/10/25 07:43:57;;;;;;;10.57;9.50;;;13.40;99.90;;;;;;4804072;29;89801;-30
2022/10/25 07:46:23;;;;;;;17.90;9.60;;;13.40;99.90;;;;;;4804252;29;89666;-30
2022/10/25 07:48:51;;;;;;;19.50;10.18;;;13.50;99.90;;;;;;4806725;29;88894;-32
2022/10/25 07:51:17;;;;;;;14.05;9.68;;;13.50;99.90;;;;;;4806920;29;90389;-28
2022/10/25 07:53:43;;;;;;;13.38;8.48;;;13.60;99.90;;;;;;4806976;29;91460;-30
2022/10/25 07:56:14;;;;;;;22.92;9.93;;;13.60;99.90;;;;;;4806079;29;88711;-29
2022/10/25 07:58:40;;;;;;;18.27;8.77;;;13.60;99.90;;;;;;4806875;29;89833;-30
2022/10/25 08:01:08;;;;;;;16.08;9.52;;;13.70;99.90;;;;;;4807823;29;91145;-30
2022/10/25 08:03:34;;;;;;;;;;;13.60;99.90;;;;;;4807829;29;90710;-31
2022/10/25 08:06:00;;;;;;;25.05;10.32;;;13.60;99.90;;;;;;4807554;29;90112;-29
2022/10/25 08:08:26;;;;;;;16.92;9.73;;;13.70;99.90;;;;;;4806363;29;88546;-32
2022/10/25 08:10:53;;;;;;;17.35;10.65;;;13.70;99.90;;;;;;4807212;29;89426;-28
2022/10/25 08:13:19;;;;;;;16.42;9.98;;;13.70;99.90;;;;;;4806215;29;90967;-32
2022/10/25 08:15:55;;;;;;;17.15;9.80;;;13.70;99.90;;;;;;4806075;29;89139;-32
2022/10/25 08:18:22;;;;;;;15.95;9.75;;;13.70;99.90;;;;;;4807106;29;90080;-27
2022/10/25 08:20:47;;;;;;;21.85;10.80;;;13.70;99.90;;;;;;4806204;29;90139;-29
2022/10/25 08:23:13;;;;;;;19.40;11.13;;;13.70;99.90;;;;;;4805831;29;90254;-30
2022/10/25 08:25:39;;;;;;;13.43;9.25;;;13.80;99.90;;;;;;4806411;29;90473;-33
2022/10/25 08:28:05;;;;;;;17.23;9.68;;;13.80;99.90;;;;;;4806711;29;89606;-31
2022/10/25 08:30:30;;;;;;;17.48;8.88;;;13.90;99.90;;;;;;4806924;29;90258;-29
2022/10/25 08:32:56;;;;;;;19.42;11.48;;;13.90;99.90;;;;;;4805896;29;89700;-28
2022/10/25 08:35:22;;;;;;;17.13;10.63;;;13.90;99.90;;;;;;4789201;29;89508;-31
2022/10/25 08:37:47;;;;;;;16.83;9.57;;;13.90;99.90;;;;;;4805740;29;87779;-30
2022/10/25 08:40:23;;;;;;;17.77;10.35;;;14.00;99.90;;;;;;4806760;29;90713;-32
2022/10/25 08:43:14;;;;;;;13.77;9.55;;;13.90;99.90;;;;;;4806136;29;89429;-29
2022/10/25 08:46:03;;;;;;;17.98;9.73;;;14.00;99.90;;;;;;4806845;29;89264;-32
2022/10/25 08:48:39;;;;;;;16.83;9.50;;;14.00;99.90;;;;;;4795621;29;89142;-30
2022/10/25 08:51:13;;;;;;;15.93;10.57;;;14.10;99.90;;;;;;4806511;29;90215;-32
2022/10/25 08:53:46;;;;;;;12.60;9.95;;;14.20;99.90;;;;;;4805609;29;88818;-31
2022/10/25 08:56:15;;;;;;;17.88;10.43;;;14.20;99.90;;;;;;4806014;29;88801;-29
2022/10/25 08:58:53;;;;;;;24.58;11.90;;;14.20;99.90;;;;;;4805610;29;88536;-27
2022/10/25 09:01:27;;;;;;;14.27;9.48;;;14.30;99.90;;;;;;4805480;29;90896;-33
2022/10/25 09:03:53;;;;;;;16.75;10.73;;;14.30;99.90;;;;;;4806334;29;90172;-30
2022/10/25 09:06:38;;;;;;;22.38;10.38;;;14.40;99.90;;;;;;4805468;29;90678;-29
2022/10/25 09:09:36;;;;;;;15.98;10.98;;;14.50;99.90;;;;;;4805258;29;88934;-31
2022/10/25 09:12:39;;;;;;;19.35;10.82;;;14.50;99.90;;;;;;4804670;29;90484;-32
2022/10/25 09:15:23;;;;;;;18.77;11.40;;;14.60;99.90;;;;;;4805378;29;90199;-30
2022/10/25 09:17:53;;;;;;;14.30;10.32;;;14.60;99.90;;;;;;4804864;29;90517;-29
2022/10/25 09:20:27;;;;;;;16.05;10.93;;;14.60;99.90;;;;;;4805624;29;89679;-30
2022/10/25 09:23:10;;;;;;;15.77;10.73;;;14.60;99.90;;;;;;4805154;29;90532;-31
2022/10/25 09:25:51;;;;;;;21.52;9.88;;;14.60;99.90;;;;;;4804577;29;88777;-30
2022/10/25 09:28:23;;;;;;;13.93;10.25;;;14.60;99.90;;;;;;4805613;29;88504;-32
2022/10/25 09:30:51;;;;;;;11.38;9.25;;;14.70;99.90;;;;;;4805175;29;89997;-31
2022/10/25 09:33:22;;;;;;;23.20;10.20;;;14.70;99.90;;;;;;4806014;29;90695;-28
2022/10/25 09:35:52;;;;;;;11.60;8.23;;;14.80;99.90;;;;;;4803585;29;89740;-29
2022/10/25 09:38:52;;;;;;;10.90;7.93;;;14.90;99.90;;;;;;4789404;29;89628;-31
2022/10/25 09:42:02;;;;;;;9.27;7.47;;;15.00;99.90;;;;;;4805683;29;90558;-31
2022/10/25 09:44:42;;;;;;;10.45;6.93;;;15.00;99.90;;;;;;4757643;29;90369;-29
2022/10/25 09:47:17;;;;;;;14.27;7.05;;;15.10;99.90;;;;;;4805468;29;90192;-28
2022/10/25 09:50:05;;;;;;;10.20;7.65;;;15.00;99.90;;;;;;4805851;29;89754;-30
2022/10/25 09:52:38;;;;;;;12.65;6.75;;;15.00;99.90;;;;;;4805912;29;90150;-30
2022/10/25 09:55:25;;;;;;;14.40;6.72;;;15.00;99.90;;;;;;4805062;29;90267;-29
2022/10/25 09:57:51;;;;;;;11.15;7.35;;;15.00;99.90;;;;;;4805285;29;90330;-27
2022/10/25 10:00:17;;;;;;;12.98;6.25;;;15.00;99.90;;;;;;4805713;29;89979;-30
2022/10/25 10:02:42;;;;;;;19.58;7.70;;;15.10;99.90;;;;;;4805219;29;88504;-33
2022/10/25 10:05:16;;;;;;;14.40;5.85;;;15.20;99.90;;;;;;4805333;29;90423;-31
2022/10/25 10:07:44;;;;;;;8.77;4.97;;;15.30;99.90;;;;;;4804454;29;90709;-31
2022/10/25 10:10:19;;;;;;;14.50;6.53;;;15.40;99.90;;;;;;4804268;29;90859;-32
2022/10/25 10:12:54;;;;;;;9.95;5.05;;;15.40;99.90;;;;;;4805222;29;87531;-32
2022/10/25 10:15:25;;;;;;;9.20;5.38;;;15.40;99.90;;;;;;4805057;29;90500;-30
2022/10/25 10:18:22;;;;;;;14.35;5.63;;;15.40;99.90;;;;;;4804947;29;90154;-32
2022/10/25 10:21:05;;;;;;;8.53;5.13;;;15.40;99.90;;;;;;4804697;29;89848;-28
2022/10/25 10:23:52;;;;;;;5.60;4.75;;;15.40;99.90;;;;;;4805668;29;89702;-30
2022/10/25 10:26:43;;;;;;;8.57;4.78;;;15.40;99.90;;;;;;4794465;29;88879;-30
2022/10/25 10:29:12;;;;;;;14.60;6.35;;;15.40;99.90;;;;;;4804453;29;89814;-30
2022/10/25 10:31:43;;;;;;;9.35;4.47;;;15.40;99.90;;;;;;4804995;29;89353;-33
2022/10/25 10:34:41;;;;;;;12.63;5.57;;;15.40;99.90;;;;;;4802051;29;88994;-32
2022/10/25 10:37:20;;;;;;;5.13;4.47;;;15.30;99.90;;;;;;4803003;29;88861;-30
2022/10/25 10:40:21;;;;;;;15.95;4.90;;;15.30;99.90;;;;;;4804221;29;89482;-31
2022/10/25 10:42:47;;;;;;;11.68;4.68;;;15.30;99.90;;;;;;4762494;29;89762;-31
2022/10/25 10:45:18;;;;;;;8.68;3.97;;;15.40;99.90;;;;;;4805141;29;89508;-31
2022/10/25 10:47:50;;;;;;;6.93;4.55;;;15.30;99.90;;;;;;4804560;29;90342;-31
2022/10/25 10:50:22;;;;;;;12.20;4.38;;;15.30;99.90;;;;;;4814912;29;90477;-29
2022/10/25 10:52:55;;;;;;;9.20;4.68;;;15.30;99.90;;;;;;4805124;29;90670;-32
2022/10/25 10:55:48;;;;;;;8.15;4.70;;;15.40;99.90;;;;;;4804483;29;88981;-27
2022/10/25 10:58:16;;;;;;;4.75;3.60;;;15.40;99.90;;;;;;4803220;29;90401;-31
2022/10/25 11:00:57;;;;;;;6.50;3.53;;;15.40;99.90;;;;;;4803799;29;90657;-33
2022/10/25 11:03:41;;;;;;;9.25;4.38;;;15.30;99.90;;;;;;4803489;29;90771;-31
2022/10/25 11:06:06;;;;;;;6.55;4.38;;;15.30;99.90;;;;;;4798110;29;88865;-30
2022/10/25 11:08:33;;;;;;;7.45;4.10;;;15.30;99.90;;;;;;4804863;29;90259;-30
2022/10/25 11:11:19;;;;;;;6.60;3.78;;;15.30;99.90;;;;;;4797754;29;89879;-29
2022/10/25 11:13:54;;;;;;;10.15;4.63;;;15.30;99.90;;;;;;4804141;29;88939;-29
2022/10/25 11:16:23;;;;;;;7.05;3.35;;;15.30;99.90;;;;;;4798778;29;88137;-31
2022/10/25 11:18:52;;;;;;;6.60;3.47;;;15.40;99.90;;;;;;4803731;29;90293;-29
2022/10/25 11:21:54;;;;;;;6.32;4.68;;;15.30;99.90;;;;;;4804156;29;90688;-30
2022/10/25 11:24:33;;;;;;;4.10;3.53;;;15.30;99.90;;;;;;4802527;29;88368;-29
2022/10/25 11:27:16;;;;;;;5.75;5.13;;;15.40;99.90;;;;;;4806544;29;89444;-31
2022/10/25 11:30:15;;;;;;;6.10;3.33;;;15.40;99.90;;;;;;4806194;29;92021;-30
2022/10/25 11:32:48;;;;;;;5.70;3.33;;;15.40;99.90;;;;;;4807630;29;89126;-29
2022/10/25 11:35:30;;;;;;;8.18;3.20;;;15.50;99.90;;;;;;4806482;29;89362;-32
2022/10/25 11:38:06;;;;;;;7.35;3.80;;;15.60;99.90;;;;;;4804667;29;90456;-32
2022/10/25 11:40:45;;;;;;;9.65;3.75;;;15.60;99.90;;;;;;4807407;29;90571;-27
2022/10/25 11:44:07;;;;;;;9.27;3.50;;;15.70;99.90;;;;;;4805390;29;89767;-31
2022/10/25 11:46:40;;;;;;;7.78;4.35;;;15.80;99.90;;;;;;4731113;29;89977;-29
2022/10/25 11:49:39;;;;;;;10.73;4.03;;;15.80;99.90;;;;;;4731603;29;89562;-33
2022/10/25 11:52:26;;;;;;;5.32;4.10;;;15.80;99.90;;;;;;4790383;29;90376;-31
2022/10/25 11:55:18;;;;;;;6.43;3.03;;;15.80;99.90;;;;;;4805832;29;90926;-32
2022/10/25 11:58:18;;;;;;;7.97;3.97;;;15.80;99.90;;;;;;4805977;29;89508;-30
2022/10/25 12:00:55;;;;;;;5.50;3.33;;;15.90;99.90;;;;;;4805625;29;89754;-31
2022/10/25 12:03:58;;;;;;;8.07;3.10;;;16.10;99.90;;;;;;4806811;29;89272;-32
2022/10/25 12:06:27;;;;;;;10.13;3.90;;;16.30;99.90;;;;;;4802334;29;89671;-29
2022/10/25 12:09:01;;;;;;;7.07;3.47;;;16.30;99.90;;;;;;4804959;29;89578;-29
2022/10/25 12:11:32;;;;;;;4.93;2.85;;;16.30;99.90;;;;;;4805794;29;89702;-31
2022/10/25 12:14:04;;;;;;;4.75;3.97;;;16.30;99.90;;;;;;4805876;29;91467;-29
2022/10/25 12:16:33;;;;;;;6.65;3.67;;;16.40;99.90;;;;;;4804045;29;90098;-32
2022/10/25 12:19:18;;;;;;;8.05;2.78;;;16.40;99.90;;;;;;4801924;29;90041;-31
2022/10/25 12:21:57;;;;;;;4.97;3.28;;;16.40;99.90;;;;;;4799777;29;90291;-30
2022/10/25 12:24:30;;;;;;;14.02;4.80;;;16.40;99.90;;;;;;4806046;29;90061;-31
2022/10/25 12:26:57;;;;;;;6.07;3.35;;;16.60;99.90;;;;;;4806440;29;90660;-29
2022/10/25 12:29:34;;;;;;;4.78;3.20;;;16.50;99.90;;;;;;4806643;29;90824;-30
2022/10/25 12:32:04;;;;;;;5.30;3.20;;;16.50;99.90;;;;;;4806017;29;88014;-32
2022/10/25 12:34:48;;;;;;;5.00;3.28;;;16.50;99.90;;;;;;4804703;29;90266;-29
2022/10/25 12:37:23;;;;;;;3.83;3.28;;;16.40;99.90;;;;;;4806083;29;89973;-31
2022/10/25 12:39:48;;;;;;;10.50;4.13;;;16.40;99.90;;;;;;4805748;29;89984;-29
2022/10/25 12:42:41;;;;;;;12.02;6.53;;;16.40;99.90;;;;;;4806905;29;89264;-33
2022/10/25 12:45:26;;;;;;;7.22;4.88;;;16.60;99.90;;;;;;4795410;29;90611;-29
2022/10/25 12:48:15;;;;;;;7.57;4.22;;;16.80;99.90;;;;;;4805022;29;90532;-29
2022/10/25 12:50:44;;;;;;;11.60;4.47;;;17.00;99.90;;;;;;4805551;29;90006;-29
2022/10/25 12:53:18;;;;;;;;;;;17.10;99.90;;;;;;4806782;29;88780;-31
2022/10/25 12:56:14;;;;;;;7.13;4.80;;;17.00;99.90;;;;;;4807311;29;92203;-29